Warning: Javascript must be enabled to use all the features on this page!


Page Loading - Please Wait...

* We've detected you're using a mobile device. Find our Next Generation Station Page here.
Click to hideNews Bulletins

Peak Streamflow for Nevada

Click to hide state-specific text


USGS 10339400 MARTIS C NR TRUCKEE CA

Nevada County, California
Hydrologic Unit Code 16050102
Latitude  39°19'44", Longitude 120°07'00" NAD27
Drainage area 39.9  square miles
Gage datum 5,730.00 feet above NGVD29
Output formats
Table
Graph
Tab-separated file
peakfq (watstore) format
Reselect output format
Water
Year
Date Gage
Height
(feet)
Stream-
flow
(cfs)
1959 1959-02-16 3.05 232
1960 1960-02-08 3.73 436
1961 1961-01-31 2.34 98.0
1962 1962-02-09 3.59 394
1963 1963-02-01 6.16 1,880
1964 1963-11-14 2.71 161
1965 1964-12-23 5.04 1,040
1966 1966-03-13 2.612 146
1967 1967-03-16 4.44 680
1968 1968-02-23 2.61 141
1969 1969-01-20 4.33 647
1970 1970-01-24 4.64 795
1971 1971-03-26 3.13 2586
1972 1972-04-26 3.53 3556
1973 1973-04-10 5.936 5866
1974 1974-04-02 6.01 6486
1975 1975-06-02 3.47 1286
1976 1976-03-17 2.79 55.06
1977 1977-02-21 2.54 36.06
1978 1978-03-04 3.59 1436
1979 1979-01-12 3.53 1356
1980 1980-01-15 5.61 6336
1981 1981-02-14 3.01 86.06
1982 1982-02-16 5.43 5836
1983 1983-03-13 5.41 5786
1984 1983-11-17 5.12 5036
1985 1985-04-10 3.53 1706
1986 1986-02-28 5.66 6636
1987 1987-02-13 3.49 1556
1988 1987-12-06 2.17 20.06
1989 1989-03-11 4.05 2646
1990 1990-03-19 2.93 87.06
1993 1993-06-16 2.31 19.06
1994 1994-03-10 2.57 38.06
1995 1995-06-06 5.41 5906
1996 1996-05-16 4.03 2596
1997 1997-01-02 4.56 3726
1998 1998-04-01 4.49 3566
1999 1999-05-14 3.83 1906
2000 2000-02-14 3.14 89.06
2001 2001-03-22 2.60 35.06
2002 2002-03-06 2.98 70.06
2003 2003-01-28 3.06 79.06
2004 2004-03-30 3.18 84.06
2005 2005-05-24 3.222 81.06
2006 2006-03-03 5.70 6756
2007 2007-02-11 4.472 43.06
2008 2008-05-22 3.322 75.06
2009 2009-03-02 4.39 2516
2010 2010-04-28 4.03 1546
?
  Peak Gage-Height Qualification Codes.
?
  Peak Streamflow Qualification Codes.